sensor_id;sensor_type;location;lat;lon;timestamp;P1;durP1;ratioP1;P2;durP2;ratioP2
50932;SDS011;36921;49.006;9.292;2023-04-20T00:00:27;7.15;;;2.85;;
50932;SDS011;36921;49.006;9.292;2023-04-20T00:02:53;4.90;;;3.00;;
50932;SDS011;36921;49.006;9.292;2023-04-20T00:05:18;9.57;;;3.50;;
50932;SDS011;36921;49.006;9.292;2023-04-20T00:07:43;6.50;;;3.17;;
50932;SDS011;36921;49.006;9.292;2023-04-20T00:10:09;6.28;;;3.35;;
50932;SDS011;36921;49.006;9.292;2023-04-20T00:12:34;5.82;;;2.83;;
50932;SDS011;36921;49.006;9.292;2023-04-20T00:15:00;7.30;;;3.00;;
50932;SDS011;36921;49.006;9.292;2023-04-20T00:17:25;7.40;;;3.10;;
50932;SDS011;36921;49.006;9.292;2023-04-20T00:19:51;6.07;;;3.00;;
50932;SDS011;36921;49.006;9.292;2023-04-20T00:22:16;5.32;;;2.92;;
50932;SDS011;36921;49.006;9.292;2023-04-20T00:24:43;9.05;;;3.88;;
50932;SDS011;36921;49.006;9.292;2023-04-20T00:27:08;6.40;;;3.28;;
50932;SDS011;36921;49.006;9.292;2023-04-20T00:29:33;6.63;;;3.22;;
50932;SDS011;36921;49.006;9.292;2023-04-20T00:31:59;8.20;;;2.97;;
50932;SDS011;36921;49.006;9.292;2023-04-20T00:34:24;9.10;;;3.50;;
50932;SDS011;36921;49.006;9.292;2023-04-20T00:36:49;6.22;;;3.15;;
50932;SDS011;36921;49.006;9.292;2023-04-20T00:39:15;7.65;;;2.95;;
50932;SDS011;36921;49.006;9.292;2023-04-20T00:41:40;5.43;;;3.17;;
50932;SDS011;36921;49.006;9.292;2023-04-20T00:44:08;7.35;;;3.25;;
50932;SDS011;36921;49.006;9.292;2023-04-20T00:46:35;7.35;;;3.08;;
50932;SDS011;36921;49.006;9.292;2023-04-20T00:49:01;5.10;;;3.08;;
50932;SDS011;36921;49.006;9.292;2023-04-20T00:51:27;7.53;;;3.53;;
50932;SDS011;36921;49.006;9.292;2023-04-20T00:53:53;8.82;;;3.58;;
50932;SDS011;36921;49.006;9.292;2023-04-20T00:56:18;8.82;;;3.20;;
50932;SDS011;36921;49.006;9.292;2023-04-20T00:58:44;5.65;;;3.13;;
50932;SDS011;36921;49.006;9.292;2023-04-20T01:01:11;4.75;;;2.92;;
50932;SDS011;36921;49.006;9.292;2023-04-20T01:03:37;5.10;;;3.15;;
50932;SDS011;36921;49.006;9.292;2023-04-20T01:06:05;5.75;;;3.10;;
50932;SDS011;36921;49.006;9.292;2023-04-20T01:08:31;7.25;;;3.20;;
50932;SDS011;36921;49.006;9.292;2023-04-20T01:10:56;7.82;;;2.97;;
50932;SDS011;36921;49.006;9.292;2023-04-20T01:18:16;8.48;;;3.15;;
50932;SDS011;36921;49.006;9.292;2023-04-20T01:20:44;7.70;;;3.47;;
50932;SDS011;36921;49.006;9.292;2023-04-20T01:23:13;9.63;;;3.35;;
50932;SDS011;36921;49.006;9.292;2023-04-20T01:25:39;5.57;;;2.95;;
50932;SDS011;36921;49.006;9.292;2023-04-20T01:28:05;8.88;;;3.97;;
50932;SDS011;36921;49.006;9.292;2023-04-20T01:30:31;8.13;;;3.67;;
50932;SDS011;36921;49.006;9.292;2023-04-20T01:32:56;9.27;;;3.95;;
50932;SDS011;36921;49.006;9.292;2023-04-20T01:35:21;11.25;;;4.07;;
50932;SDS011;36921;49.006;9.292;2023-04-20T01:37:47;10.27;;;3.92;;
50932;SDS011;36921;49.006;9.292;2023-04-20T01:40:12;8.32;;;4.05;;
50932;SDS011;36921;49.006;9.292;2023-04-20T01:42:39;10.07;;;3.80;;
50932;SDS011;36921;49.006;9.292;2023-04-20T01:45:05;10.25;;;3.90;;
50932;SDS011;36921;49.006;9.292;2023-04-20T01:47:31;8.65;;;3.83;;
50932;SDS011;36921;49.006;9.292;2023-04-20T01:49:56;6.18;;;3.53;;
50932;SDS011;36921;49.006;9.292;2023-04-20T01:52:22;8.05;;;3.88;;
50932;SDS011;36921;49.006;9.292;2023-04-20T01:54:47;23.25;;;7.05;;
50932;SDS011;36921;49.006;9.292;2023-04-20T01:57:13;18.60;;;6.40;;
50932;SDS011;36921;49.006;9.292;2023-04-20T01:59:38;11.60;;;5.53;;
50932;SDS011;36921;49.006;9.292;2023-04-20T02:02:03;13.25;;;6.72;;
50932;SDS011;36921;49.006;9.292;2023-04-20T02:04:29;7.70;;;4.13;;
50932;SDS011;36921;49.006;9.292;2023-04-20T02:06:54;6.13;;;3.80;;
50932;SDS011;36921;49.006;9.292;2023-04-20T02:09:20;8.85;;;3.90;;
50932;SDS011;36921;49.006;9.292;2023-04-20T02:11:45;8.38;;;3.83;;
50932;SDS011;36921;49.006;9.292;2023-04-20T02:14:11;7.93;;;4.47;;
50932;SDS011;36921;49.006;9.292;2023-04-20T02:16:36;7.72;;;3.75;;
50932;SDS011;36921;49.006;9.292;2023-04-20T02:19:01;7.25;;;4.13;;
50932;SDS011;36921;49.006;9.292;2023-04-20T02:21:27;6.88;;;4.00;;
50932;SDS011;36921;49.006;9.292;2023-04-20T02:23:52;6.18;;;3.88;;
50932;SDS011;36921;49.006;9.292;2023-04-20T02:26:18;8.52;;;4.18;;
50932;SDS011;36921;49.006;9.292;2023-04-20T02:28:43;5.95;;;3.78;;
50932;SDS011;36921;49.006;9.292;2023-04-20T02:31:09;11.18;;;4.28;;
50932;SDS011;36921;49.006;9.292;2023-04-20T02:33:36;8.77;;;3.85;;
50932;SDS011;36921;49.006;9.292;2023-04-20T02:36:01;7.30;;;4.32;;
50932;SDS011;36921;49.006;9.292;2023-04-20T02:38:26;7.82;;;4.07;;
50932;SDS011;36921;49.006;9.292;2023-04-20T02:40:52;8.52;;;4.45;;
50932;SDS011;36921;49.006;9.292;2023-04-20T02:43:17;8.68;;;4.63;;
50932;SDS011;36921;49.006;9.292;2023-04-20T02:45:43;12.68;;;4.65;;
50932;SDS011;36921;49.006;9.292;2023-04-20T02:48:08;7.85;;;4.82;;
50932;SDS011;36921;49.006;9.292;2023-04-20T02:50:33;7.85;;;4.20;;
50932;SDS011;36921;49.006;9.292;2023-04-20T02:53:05;8.93;;;4.13;;
50932;SDS011;36921;49.006;9.292;2023-04-20T02:55:30;6.72;;;3.63;;
50932;SDS011;36921;49.006;9.292;2023-04-20T02:57:56;6.97;;;3.92;;
50932;SDS011;36921;49.006;9.292;2023-04-20T03:00:21;7.72;;;4.38;;
50932;SDS011;36921;49.006;9.292;2023-04-20T03:02:53;7.75;;;4.55;;
50932;SDS011;36921;49.006;9.292;2023-04-20T03:05:18;11.85;;;5.30;;
50932;SDS011;36921;49.006;9.292;2023-04-20T03:07:43;10.80;;;5.82;;
50932;SDS011;36921;49.006;9.292;2023-04-20T03:10:09;10.45;;;5.03;;
50932;SDS011;36921;49.006;9.292;2023-04-20T03:12:35;12.25;;;5.90;;
50932;SDS011;36921;49.006;9.292;2023-04-20T03:15:00;10.07;;;5.03;;
50932;SDS011;36921;49.006;9.292;2023-04-20T03:17:28;11.35;;;4.63;;
50932;SDS011;36921;49.006;9.292;2023-04-20T03:19:53;10.65;;;4.40;;
50932;SDS011;36921;49.006;9.292;2023-04-20T03:22:19;7.97;;;4.78;;
50932;SDS011;36921;49.006;9.292;2023-04-20T03:24:44;8.23;;;4.40;;
50932;SDS011;36921;49.006;9.292;2023-04-20T03:27:10;9.05;;;4.75;;
50932;SDS011;36921;49.006;9.292;2023-04-20T03:29:36;10.23;;;4.55;;
50932;SDS011;36921;49.006;9.292;2023-04-20T03:35:15;9.48;;;4.65;;
50932;SDS011;36921;49.006;9.292;2023-04-20T03:37:41;10.35;;;5.30;;
50932;SDS011;36921;49.006;9.292;2023-04-20T03:40:22;8.13;;;5.00;;
50932;SDS011;36921;49.006;9.292;2023-04-20T03:42:48;6.82;;;4.10;;
50932;SDS011;36921;49.006;9.292;2023-04-20T03:45:14;8.27;;;5.07;;
50932;SDS011;36921;49.006;9.292;2023-04-20T03:47:40;8.68;;;4.88;;
50932;SDS011;36921;49.006;9.292;2023-04-20T03:50:06;14.35;;;5.00;;
50932;SDS011;36921;49.006;9.292;2023-04-20T03:52:31;8.13;;;4.95;;
50932;SDS011;36921;49.006;9.292;2023-04-20T03:54:57;9.38;;;4.63;;
50932;SDS011;36921;49.006;9.292;2023-04-20T03:57:22;9.13;;;4.43;;
50932;SDS011;36921;49.006;9.292;2023-04-20T03:59:47;7.93;;;4.07;;
50932;SDS011;36921;49.006;9.292;2023-04-20T04:02:13;10.07;;;4.38;;
50932;SDS011;36921;49.006;9.292;2023-04-20T04:04:39;7.53;;;4.50;;
50932;SDS011;36921;49.006;9.292;2023-04-20T04:07:05;12.27;;;5.25;;
50932;SDS011;36921;49.006;9.292;2023-04-20T04:09:31;10.82;;;5.22;;
50932;SDS011;36921;49.006;9.292;2023-04-20T04:11:56;13.73;;;4.82;;
50932;SDS011;36921;49.006;9.292;2023-04-20T04:14:22;6.40;;;4.28;;
50932;SDS011;36921;49.006;9.292;2023-04-20T04:16:47;10.63;;;4.18;;
50932;SDS011;36921;49.006;9.292;2023-04-20T04:19:12;9.23;;;4.75;;
50932;SDS011;36921;49.006;9.292;2023-04-20T04:21:38;8.15;;;5.07;;
50932;SDS011;36921;49.006;9.292;2023-04-20T04:24:03;6.60;;;4.45;;
50932;SDS011;36921;49.006;9.292;2023-04-20T04:26:29;14.85;;;4.63;;
50932;SDS011;36921;49.006;9.292;2023-04-20T04:28:55;8.82;;;4.90;;
50932;SDS011;36921;49.006;9.292;2023-04-20T04:31:22;7.85;;;5.22;;
50932;SDS011;36921;49.006;9.292;2023-04-20T04:33:48;10.02;;;4.95;;
50932;SDS011;36921;49.006;9.292;2023-04-20T04:36:14;11.88;;;6.00;;
50932;SDS011;36921;49.006;9.292;2023-04-20T04:38:40;9.43;;;5.18;;
50932;SDS011;36921;49.006;9.292;2023-04-20T04:41:08;12.98;;;5.63;;
50932;SDS011;36921;49.006;9.292;2023-04-20T04:43:34;10.85;;;5.20;;
50932;SDS011;36921;49.006;9.292;2023-04-20T04:46:04;8.70;;;5.00;;
50932;SDS011;36921;49.006;9.292;2023-04-20T04:48:32;12.38;;;5.68;;
50932;SDS011;36921;49.006;9.292;2023-04-20T04:50:59;14.93;;;6.45;;
50932;SDS011;36921;49.006;9.292;2023-04-20T04:53:24;13.02;;;6.05;;
50932;SDS011;36921;49.006;9.292;2023-04-20T04:55:50;8.23;;;5.10;;
50932;SDS011;36921;49.006;9.292;2023-04-20T04:58:15;10.48;;;5.88;;
50932;SDS011;36921;49.006;9.292;2023-04-20T05:00:41;13.32;;;5.65;;
50932;SDS011;36921;49.006;9.292;2023-04-20T05:03:06;14.20;;;6.05;;
50932;SDS011;36921;49.006;9.292;2023-04-20T05:05:31;10.75;;;5.40;;
50932;SDS011;36921;49.006;9.292;2023-04-20T05:07:57;11.13;;;5.80;;
50932;SDS011;36921;49.006;9.292;2023-04-20T05:10:22;8.70;;;5.15;;
50932;SDS011;36921;49.006;9.292;2023-04-20T05:12:48;8.77;;;5.15;;
50932;SDS011;36921;49.006;9.292;2023-04-20T05:15:13;8.88;;;5.18;;
50932;SDS011;36921;49.006;9.292;2023-04-20T05:17:38;11.48;;;5.75;;
50932;SDS011;36921;49.006;9.292;2023-04-20T05:20:04;10.57;;;5.65;;
50932;SDS011;36921;49.006;9.292;2023-04-20T05:22:31;9.07;;;5.35;;
50932;SDS011;36921;49.006;9.292;2023-04-20T05:24:57;7.13;;;4.70;;
50932;SDS011;36921;49.006;9.292;2023-04-20T05:27:22;9.30;;;4.43;;
50932;SDS011;36921;49.006;9.292;2023-04-20T05:29:47;8.30;;;4.50;;
50932;SDS011;36921;49.006;9.292;2023-04-20T05:32:13;11.20;;;4.72;;
50932;SDS011;36921;49.006;9.292;2023-04-20T05:37:24;14.35;;;4.97;;
50932;SDS011;36921;49.006;9.292;2023-04-20T05:39:51;9.90;;;5.07;;
50932;SDS011;36921;49.006;9.292;2023-04-20T05:42:16;12.90;;;6.03;;
50932;SDS011;36921;49.006;9.292;2023-04-20T05:44:42;13.25;;;7.70;;
50932;SDS011;36921;49.006;9.292;2023-04-20T05:47:08;11.05;;;5.60;;
50932;SDS011;36921;49.006;9.292;2023-04-20T05:49:34;8.50;;;5.57;;
50932;SDS011;36921;49.006;9.292;2023-04-20T05:52:00;10.73;;;5.38;;
50932;SDS011;36921;49.006;9.292;2023-04-20T05:54:26;11.40;;;4.88;;
50932;SDS011;36921;49.006;9.292;2023-04-20T05:56:52;9.10;;;4.40;;
50932;SDS011;36921;49.006;9.292;2023-04-20T05:59:18;8.60;;;4.10;;
50932;SDS011;36921;49.006;9.292;2023-04-20T06:01:44;6.65;;;3.72;;
50932;SDS011;36921;49.006;9.292;2023-04-20T06:04:09;5.63;;;3.80;;
50932;SDS011;36921;49.006;9.292;2023-04-20T06:06:35;7.25;;;3.63;;
50932;SDS011;36921;49.006;9.292;2023-04-20T06:09:00;5.75;;;3.60;;
50932;SDS011;36921;49.006;9.292;2023-04-20T06:11:26;8.70;;;3.25;;
50932;SDS011;36921;49.006;9.292;2023-04-20T06:13:51;7.05;;;3.30;;
50932;SDS011;36921;49.006;9.292;2023-04-20T06:16:16;14.68;;;3.88;;
50932;SDS011;36921;49.006;9.292;2023-04-20T06:18:42;4.82;;;2.95;;
50932;SDS011;36921;49.006;9.292;2023-04-20T06:21:08;6.35;;;3.90;;
50932;SDS011;36921;49.006;9.292;2023-04-20T06:23:35;4.82;;;3.20;;
50932;SDS011;36921;49.006;9.292;2023-04-20T06:26:01;6.85;;;3.25;;
50932;SDS011;36921;49.006;9.292;2023-04-20T06:28:27;5.53;;;3.13;;
50932;SDS011;36921;49.006;9.292;2023-04-20T06:30:52;6.68;;;3.42;;
50932;SDS011;36921;49.006;9.292;2023-04-20T06:33:18;5.82;;;3.50;;
50932;SDS011;36921;49.006;9.292;2023-04-20T06:35:43;4.60;;;3.40;;
50932;SDS011;36921;49.006;9.292;2023-04-20T06:38:09;6.85;;;3.72;;
50932;SDS011;36921;49.006;9.292;2023-04-20T06:40:34;6.30;;;3.72;;
50932;SDS011;36921;49.006;9.292;2023-04-20T06:43:01;5.53;;;3.35;;
50932;SDS011;36921;49.006;9.292;2023-04-20T06:45:26;6.38;;;3.22;;
50932;SDS011;36921;49.006;9.292;2023-04-20T06:47:51;7.35;;;3.65;;
50932;SDS011;36921;49.006;9.292;2023-04-20T06:50:17;5.07;;;3.30;;
50932;SDS011;36921;49.006;9.292;2023-04-20T06:52:42;5.38;;;3.53;;
50932;SDS011;36921;49.006;9.292;2023-04-20T06:55:09;4.70;;;3.20;;
50932;SDS011;36921;49.006;9.292;2023-04-20T06:57:34;6.93;;;3.40;;
50932;SDS011;36921;49.006;9.292;2023-04-20T07:00:03;7.55;;;3.45;;
50932;SDS011;36921;49.006;9.292;2023-04-20T07:02:40;4.22;;;3.33;;
50932;SDS011;36921;49.006;9.292;2023-04-20T07:05:07;5.30;;;3.85;;
50932;SDS011;36921;49.006;9.292;2023-04-20T07:07:32;7.63;;;3.42;;
50932;SDS011;36921;49.006;9.292;2023-04-20T07:09:58;6.20;;;3.20;;
50932;SDS011;36921;49.006;9.292;2023-04-20T07:12:23;6.82;;;3.25;;
50932;SDS011;36921;49.006;9.292;2023-04-20T07:17:18;6.63;;;3.45;;
50932;SDS011;36921;49.006;9.292;2023-04-20T07:19:43;5.93;;;3.38;;
50932;SDS011;36921;49.006;9.292;2023-04-20T07:22:08;8.60;;;4.35;;
50932;SDS011;36921;49.006;9.292;2023-04-20T07:24:34;5.95;;;3.97;;
50932;SDS011;36921;49.006;9.292;2023-04-20T07:26:59;4.82;;;3.75;;
50932;SDS011;36921;49.006;9.292;2023-04-20T07:29:25;5.72;;;3.67;;
50932;SDS011;36921;49.006;9.292;2023-04-20T07:31:50;5.43;;;3.53;;
50932;SDS011;36921;49.006;9.292;2023-04-20T07:34:16;6.63;;;3.80;;
50932;SDS011;36921;49.006;9.292;2023-04-20T07:36:41;7.13;;;3.70;;
50932;SDS011;36921;49.006;9.292;2023-04-20T07:39:06;4.35;;;3.50;;
50932;SDS011;36921;49.006;9.292;2023-04-20T07:41:32;5.32;;;3.50;;
50932;SDS011;36921;49.006;9.292;2023-04-20T07:43:57;5.28;;;3.25;;
50932;SDS011;36921;49.006;9.292;2023-04-20T07:46:23;8.30;;;3.50;;
50932;SDS011;36921;49.006;9.292;2023-04-20T07:48:48;4.32;;;3.15;;
50932;SDS011;36921;49.006;9.292;2023-04-20T07:51:14;4.68;;;2.95;;
50932;SDS011;36921;49.006;9.292;2023-04-20T07:53:40;3.67;;;3.00;;
50932;SDS011;36921;49.006;9.292;2023-04-20T07:56:07;4.95;;;3.20;;
50932;SDS011;36921;49.006;9.292;2023-04-20T07:58:32;4.45;;;3.17;;
50932;SDS011;36921;49.006;9.292;2023-04-20T08:00:59;5.18;;;3.45;;
50932;SDS011;36921;49.006;9.292;2023-04-20T08:03:24;4.72;;;3.13;;
50932;SDS011;36921;49.006;9.292;2023-04-20T08:05:52;4.88;;;3.45;;
50932;SDS011;36921;49.006;9.292;2023-04-20T08:08:17;5.82;;;3.50;;
50932;SDS011;36921;49.006;9.292;2023-04-20T08:10:43;7.30;;;4.22;;
50932;SDS011;36921;49.006;9.292;2023-04-20T08:13:08;7.35;;;4.40;;
50932;SDS011;36921;49.006;9.292;2023-04-20T08:15:33;8.60;;;4.10;;
50932;SDS011;36921;49.006;9.292;2023-04-20T08:17:59;5.97;;;3.90;;
50932;SDS011;36921;49.006;9.292;2023-04-20T08:20:25;8.05;;;3.75;;
50932;SDS011;36921;49.006;9.292;2023-04-20T08:22:50;8.05;;;4.65;;
50932;SDS011;36921;49.006;9.292;2023-04-20T08:25:16;7.60;;;4.07;;
50932;SDS011;36921;49.006;9.292;2023-04-20T08:27:42;7.97;;;4.72;;
50932;SDS011;36921;49.006;9.292;2023-04-20T08:30:07;7.38;;;4.13;;
50932;SDS011;36921;49.006;9.292;2023-04-20T08:32:33;5.93;;;3.78;;
50932;SDS011;36921;49.006;9.292;2023-04-20T08:34:58;7.57;;;3.80;;
50932;SDS011;36921;49.006;9.292;2023-04-20T08:37:24;8.80;;;4.60;;
50932;SDS011;36921;49.006;9.292;2023-04-20T08:39:50;7.78;;;4.50;;
50932;SDS011;36921;49.006;9.292;2023-04-20T08:42:15;6.90;;;4.20;;
50932;SDS011;36921;49.006;9.292;2023-04-20T08:44:41;6.40;;;4.35;;
50932;SDS011;36921;49.006;9.292;2023-04-20T08:47:08;10.38;;;4.28;;
50932;SDS011;36921;49.006;9.292;2023-04-20T08:49:35;7.40;;;4.13;;
50932;SDS011;36921;49.006;9.292;2023-04-20T08:52:03;6.45;;;4.00;;
50932;SDS011;36921;49.006;9.292;2023-04-20T08:54:29;7.22;;;4.53;;
50932;SDS011;36921;49.006;9.292;2023-04-20T08:56:55;7.45;;;4.28;;
50932;SDS011;36921;49.006;9.292;2023-04-20T08:59:21;8.80;;;4.70;;
50932;SDS011;36921;49.006;9.292;2023-04-20T09:01:46;7.72;;;4.63;;
50932;SDS011;36921;49.006;9.292;2023-04-20T09:04:16;8.50;;;4.68;;
50932;SDS011;36921;49.006;9.292;2023-04-20T09:06:46;7.10;;;4.07;;
50932;SDS011;36921;49.006;9.292;2023-04-20T09:09:14;5.10;;;3.40;;
50932;SDS011;36921;49.006;9.292;2023-04-20T09:11:40;9.30;;;4.78;;
50932;SDS011;36921;49.006;9.292;2023-04-20T09:14:06;7.82;;;4.70;;
50932;SDS011;36921;49.006;9.292;2023-04-20T09:16:37;10.02;;;4.28;;
50932;SDS011;36921;49.006;9.292;2023-04-20T09:19:24;10.52;;;4.18;;
50932;SDS011;36921;49.006;9.292;2023-04-20T09:21:53;8.68;;;4.60;;
50932;SDS011;36921;49.006;9.292;2023-04-20T09:24:20;10.48;;;4.97;;
50932;SDS011;36921;49.006;9.292;2023-04-20T09:26:46;8.75;;;4.70;;
50932;SDS011;36921;49.006;9.292;2023-04-20T09:29:15;9.27;;;4.90;;
50932;SDS011;36921;49.006;9.292;2023-04-20T09:31:42;11.98;;;4.97;;
50932;SDS011;36921;49.006;9.292;2023-04-20T09:34:08;8.57;;;5.22;;
50932;SDS011;36921;49.006;9.292;2023-04-20T09:36:44;12.80;;;5.45;;
50932;SDS011;36921;49.006;9.292;2023-04-20T09:39:15;10.82;;;4.80;;
50932;SDS011;36921;49.006;9.292;2023-04-20T09:41:43;8.65;;;4.82;;
50932;SDS011;36921;49.006;9.292;2023-04-20T09:44:09;10.90;;;4.80;;
50932;SDS011;36921;49.006;9.292;2023-04-20T09:46:37;7.35;;;4.10;;
50932;SDS011;36921;49.006;9.292;2023-04-20T09:49:05;8.70;;;4.40;;
50932;SDS011;36921;49.006;9.292;2023-04-20T09:51:35;6.80;;;4.25;;
50932;SDS011;36921;49.006;9.292;2023-04-20T09:54:03;7.95;;;4.47;;
50932;SDS011;36921;49.006;9.292;2023-04-20T09:56:30;9.32;;;4.45;;
50932;SDS011;36921;49.006;9.292;2023-04-20T09:58:56;8.45;;;4.68;;
50932;SDS011;36921;49.006;9.292;2023-04-20T10:01:23;6.88;;;4.38;;
50932;SDS011;36921;49.006;9.292;2023-04-20T10:03:49;8.98;;;4.40;;
50932;SDS011;36921;49.006;9.292;2023-04-20T10:06:28;7.28;;;4.68;;
50932;SDS011;36921;49.006;9.292;2023-04-20T10:08:56;6.50;;;4.20;;
50932;SDS011;36921;49.006;9.292;2023-04-20T10:11:26;6.57;;;4.22;;
50932;SDS011;36921;49.006;9.292;2023-04-20T10:13:54;7.93;;;4.35;;
50932;SDS011;36921;49.006;9.292;2023-04-20T10:16:20;5.65;;;3.92;;
50932;SDS011;36921;49.006;9.292;2023-04-20T10:18:55;8.27;;;4.68;;
50932;SDS011;36921;49.006;9.292;2023-04-20T10:21:22;7.50;;;4.05;;
50932;SDS011;36921;49.006;9.292;2023-04-20T10:23:48;7.20;;;4.47;;
50932;SDS011;36921;49.006;9.292;2023-04-20T10:26:14;9.95;;;4.35;;
50932;SDS011;36921;49.006;9.292;2023-04-20T10:28:41;6.30;;;4.25;;
50932;SDS011;36921;49.006;9.292;2023-04-20T10:31:09;6.03;;;3.97;;
50932;SDS011;36921;49.006;9.292;2023-04-20T10:33:52;5.55;;;4.03;;
50932;SDS011;36921;49.006;9.292;2023-04-20T10:38:51;5.72;;;3.90;;
50932;SDS011;36921;49.006;9.292;2023-04-20T10:41:17;5.22;;;3.88;;
50932;SDS011;36921;49.006;9.292;2023-04-20T10:43:42;6.13;;;3.75;;
50932;SDS011;36921;49.006;9.292;2023-04-20T10:46:14;6.93;;;3.83;;
50932;SDS011;36921;49.006;9.292;2023-04-20T10:48:57;8.30;;;4.10;;
50932;SDS011;36921;49.006;9.292;2023-04-20T10:51:25;7.63;;;3.70;;
50932;SDS011;36921;49.006;9.292;2023-04-20T10:54:24;6.20;;;3.88;;
50932;SDS011;36921;49.006;9.292;2023-04-20T10:56:43;6.70;;;3.97;;
50932;SDS011;36921;49.006;9.292;2023-04-20T10:59:11;8.25;;;4.75;;
50932;SDS011;36921;49.006;9.292;2023-04-20T11:01:41;6.72;;;4.20;;
50932;SDS011;36921;49.006;9.292;2023-04-20T11:04:08;6.72;;;4.07;;
50932;SDS011;36921;49.006;9.292;2023-04-20T11:06:37;7.32;;;4.75;;
50932;SDS011;36921;49.006;9.292;2023-04-20T11:09:14;6.43;;;3.95;;
50932;SDS011;36921;49.006;9.292;2023-04-20T11:11:42;6.50;;;3.40;;
50932;SDS011;36921;49.006;9.292;2023-04-20T11:14:08;5.20;;;3.30;;
50932;SDS011;36921;49.006;9.292;2023-04-20T11:16:34;6.75;;;4.05;;
50932;SDS011;36921;49.006;9.292;2023-04-20T11:19:00;7.22;;;4.50;;
50932;SDS011;36921;49.006;9.292;2023-04-20T11:21:37;7.05;;;4.53;;
50932;SDS011;36921;49.006;9.292;2023-04-20T11:24:19;6.78;;;4.68;;
50932;SDS011;36921;49.006;9.292;2023-04-20T11:26:45;5.43;;;3.97;;
50932;SDS011;36921;49.006;9.292;2023-04-20T11:31:59;8.18;;;4.32;;
50932;SDS011;36921;49.006;9.292;2023-04-20T11:34:26;6.63;;;4.28;;
50932;SDS011;36921;49.006;9.292;2023-04-20T11:36:51;6.72;;;4.25;;
50932;SDS011;36921;49.006;9.292;2023-04-20T11:39:26;6.82;;;4.18;;
50932;SDS011;36921;49.006;9.292;2023-04-20T11:41:53;10.70;;;4.57;;
50932;SDS011;36921;49.006;9.292;2023-04-20T11:44:21;7.53;;;3.95;;
50932;SDS011;36921;49.006;9.292;2023-04-20T11:46:47;6.15;;;4.18;;
50932;SDS011;36921;49.006;9.292;2023-04-20T11:49:14;6.68;;;4.18;;
50932;SDS011;36921;49.006;9.292;2023-04-20T11:51:40;7.63;;;4.45;;
50932;SDS011;36921;49.006;9.292;2023-04-20T11:54:06;6.70;;;4.72;;
50932;SDS011;36921;49.006;9.292;2023-04-20T11:56:31;7.18;;;4.68;;
50932;SDS011;36921;49.006;9.292;2023-04-20T11:58:56;8.07;;;4.85;;
50932;SDS011;36921;49.006;9.292;2023-04-20T12:01:22;7.22;;;4.72;;
50932;SDS011;36921;49.006;9.292;2023-04-20T12:03:47;8.23;;;4.88;;
50932;SDS011;36921;49.006;9.292;2023-04-20T12:06:12;14.02;;;5.60;;
50932;SDS011;36921;49.006;9.292;2023-04-20T12:08:38;10.25;;;5.07;;
50932;SDS011;36921;49.006;9.292;2023-04-20T12:11:03;7.57;;;4.90;;
50932;SDS011;36921;49.006;9.292;2023-04-20T12:13:28;9.70;;;4.95;;
50932;SDS011;36921;49.006;9.292;2023-04-20T12:15:54;10.73;;;5.25;;
50932;SDS011;36921;49.006;9.292;2023-04-20T12:18:19;9.68;;;5.50;;
50932;SDS011;36921;49.006;9.292;2023-04-20T12:20:44;7.78;;;4.80;;
50932;SDS011;36921;49.006;9.292;2023-04-20T12:23:11;8.68;;;4.88;;
50932;SDS011;36921;49.006;9.292;2023-04-20T12:25:36;10.18;;;5.15;;
50932;SDS011;36921;49.006;9.292;2023-04-20T12:28:01;7.45;;;4.43;;
50932;SDS011;36921;49.006;9.292;2023-04-20T12:30:30;11.90;;;4.95;;
50932;SDS011;36921;49.006;9.292;2023-04-20T12:32:56;8.02;;;4.25;;
50932;SDS011;36921;49.006;9.292;2023-04-20T12:35:21;6.93;;;3.80;;
50932;SDS011;36921;49.006;9.292;2023-04-20T12:37:47;6.70;;;3.70;;
50932;SDS011;36921;49.006;9.292;2023-04-20T12:40:12;7.95;;;4.18;;
50932;SDS011;36921;49.006;9.292;2023-04-20T12:42:38;8.13;;;4.03;;
50932;SDS011;36921;49.006;9.292;2023-04-20T12:45:03;7.40;;;4.25;;
50932;SDS011;36921;49.006;9.292;2023-04-20T12:47:28;7.70;;;4.15;;
50932;SDS011;36921;49.006;9.292;2023-04-20T12:49:54;7.65;;;4.13;;
50932;SDS011;36921;49.006;9.292;2023-04-20T12:52:20;7.15;;;3.95;;
50932;SDS011;36921;49.006;9.292;2023-04-20T12:54:45;6.32;;;4.03;;
50932;SDS011;36921;49.006;9.292;2023-04-20T12:57:10;6.53;;;4.10;;
50932;SDS011;36921;49.006;9.292;2023-04-20T12:59:36;7.32;;;3.95;;
50932;SDS011;36921;49.006;9.292;2023-04-20T13:02:01;6.18;;;3.70;;
50932;SDS011;36921;49.006;9.292;2023-04-20T13:04:26;6.13;;;3.63;;
50932;SDS011;36921;49.006;9.292;2023-04-20T13:06:51;8.43;;;3.63;;
50932;SDS011;36921;49.006;9.292;2023-04-20T13:09:17;5.85;;;3.92;;
50932;SDS011;36921;49.006;9.292;2023-04-20T13:11:42;5.63;;;3.70;;
50932;SDS011;36921;49.006;9.292;2023-04-20T13:14:07;5.53;;;3.15;;
50932;SDS011;36921;49.006;9.292;2023-04-20T13:16:33;5.60;;;3.92;;
50932;SDS011;36921;49.006;9.292;2023-04-20T13:18:58;8.57;;;4.57;;
50932;SDS011;36921;49.006;9.292;2023-04-20T13:21:23;5.32;;;3.20;;
50932;SDS011;36921;49.006;9.292;2023-04-20T13:23:49;6.15;;;3.25;;
50932;SDS011;36921;49.006;9.292;2023-04-20T13:26:15;4.90;;;3.42;;
50932;SDS011;36921;49.006;9.292;2023-04-20T13:28:40;6.75;;;3.67;;
50932;SDS011;36921;49.006;9.292;2023-04-20T13:31:05;9.27;;;3.50;;
50932;SDS011;36921;49.006;9.292;2023-04-20T13:33:31;5.00;;;3.38;;
50932;SDS011;36921;49.006;9.292;2023-04-20T13:35:57;6.13;;;3.30;;
50932;SDS011;36921;49.006;9.292;2023-04-20T13:38:22;6.22;;;3.55;;
50932;SDS011;36921;49.006;9.292;2023-04-20T13:40:47;5.03;;;3.22;;
50932;SDS011;36921;49.006;9.292;2023-04-20T13:43:12;7.93;;;3.25;;
50932;SDS011;36921;49.006;9.292;2023-04-20T13:45:38;5.97;;;3.75;;
50932;SDS011;36921;49.006;9.292;2023-04-20T13:48:03;7.05;;;3.30;;
50932;SDS011;36921;49.006;9.292;2023-04-20T13:50:29;5.40;;;3.75;;
50932;SDS011;36921;49.006;9.292;2023-04-20T13:52:54;5.07;;;3.20;;
50932;SDS011;36921;49.006;9.292;2023-04-20T13:55:20;7.13;;;3.47;;
50932;SDS011;36921;49.006;9.292;2023-04-20T13:57:45;5.22;;;3.35;;
50932;SDS011;36921;49.006;9.292;2023-04-20T14:00:11;6.35;;;3.65;;
50932;SDS011;36921;49.006;9.292;2023-04-20T14:02:37;8.82;;;3.63;;
50932;SDS011;36921;49.006;9.292;2023-04-20T14:05:02;7.55;;;3.47;;
50932;SDS011;36921;49.006;9.292;2023-04-20T14:07:30;8.15;;;4.18;;
50932;SDS011;36921;49.006;9.292;2023-04-20T14:09:56;6.00;;;3.78;;
50932;SDS011;36921;49.006;9.292;2023-04-20T14:12:23;5.90;;;3.60;;
50932;SDS011;36921;49.006;9.292;2023-04-20T14:14:51;6.20;;;4.07;;
50932;SDS011;36921;49.006;9.292;2023-04-20T14:17:16;8.10;;;4.07;;
50932;SDS011;36921;49.006;9.292;2023-04-20T14:19:41;5.68;;;3.65;;
50932;SDS011;36921;49.006;9.292;2023-04-20T14:22:07;6.07;;;3.85;;
50932;SDS011;36921;49.006;9.292;2023-04-20T14:24:32;7.82;;;3.50;;
50932;SDS011;36921;49.006;9.292;2023-04-20T14:26:57;7.35;;;3.95;;
50932;SDS011;36921;49.006;9.292;2023-04-20T14:29:23;6.80;;;4.03;;
50932;SDS011;36921;49.006;9.292;2023-04-20T14:31:49;7.38;;;4.07;;
50932;SDS011;36921;49.006;9.292;2023-04-20T14:34:14;6.80;;;3.95;;
50932;SDS011;36921;49.006;9.292;2023-04-20T14:36:39;5.93;;;4.20;;
50932;SDS011;36921;49.006;9.292;2023-04-20T14:39:05;7.57;;;4.82;;
50932;SDS011;36921;49.006;9.292;2023-04-20T14:41:31;6.95;;;4.47;;
50932;SDS011;36921;49.006;9.292;2023-04-20T14:43:57;5.57;;;3.92;;
50932;SDS011;36921;49.006;9.292;2023-04-20T14:46:23;8.07;;;4.95;;
50932;SDS011;36921;49.006;9.292;2023-04-20T14:48:48;6.20;;;4.35;;
50932;SDS011;36921;49.006;9.292;2023-04-20T14:51:13;6.97;;;4.40;;
50932;SDS011;36921;49.006;9.292;2023-04-20T14:53:40;6.70;;;4.10;;
50932;SDS011;36921;49.006;9.292;2023-04-20T14:56:05;8.05;;;4.78;;
50932;SDS011;36921;49.006;9.292;2023-04-20T14:58:31;6.43;;;3.72;;